sensor_id;sensor_type;location;lat;lon;timestamp;pressure;altitude;pressure_sealevel;temperature;humidity
28428;BME280;15662;49.128;8.520;2023-02-11T00:01:30;102586.69;;;6.65;42.17
28428;BME280;15662;49.128;8.520;2023-02-11T00:03:59;102595.50;;;6.65;42.39
28428;BME280;15662;49.128;8.520;2023-02-11T00:06:31;102590.13;;;6.61;42.38
28428;BME280;15662;49.128;8.520;2023-02-11T00:08:59;102599.78;;;6.60;42.41
28428;BME280;15662;49.128;8.520;2023-02-11T00:11:28;102593.53;;;6.58;42.39
28428;BME280;15662;49.128;8.520;2023-02-11T00:14:11;102592.56;;;6.55;42.57
28428;BME280;15662;49.128;8.520;2023-02-11T00:16:42;102592.56;;;6.55;42.52
28428;BME280;15662;49.128;8.520;2023-02-11T00:19:10;102591.63;;;6.51;42.43
28428;BME280;15662;49.128;8.520;2023-02-11T00:21:37;102589.91;;;6.53;42.34
28428;BME280;15662;49.128;8.520;2023-02-11T00:24:06;102586.25;;;6.48;42.71
28428;BME280;15662;49.128;8.520;2023-02-11T00:26:34;102594.25;;;6.51;42.77
28428;BME280;15662;49.128;8.520;2023-02-11T00:29:03;102599.47;;;6.50;42.78
28428;BME280;15662;49.128;8.520;2023-02-11T00:31:32;102604.81;;;6.53;42.75
28428;BME280;15662;49.128;8.520;2023-02-11T00:34:01;102596.00;;;6.51;42.72
28428;BME280;15662;49.128;8.520;2023-02-11T00:36:29;102582.69;;;6.46;42.70
28428;BME280;15662;49.128;8.520;2023-02-11T00:38:58;102595.16;;;6.53;42.91
28428;BME280;15662;49.128;8.520;2023-02-11T00:41:27;102591.56;;;6.50;42.87
28428;BME280;15662;49.128;8.520;2023-02-11T00:43:56;102592.53;;;6.53;42.50
28428;BME280;15662;49.128;8.520;2023-02-11T00:46:24;102577.56;;;6.51;42.66
28428;BME280;15662;49.128;8.520;2023-02-11T00:48:51;102584.66;;;6.55;42.87
28428;BME280;15662;49.128;8.520;2023-02-11T00:51:26;102591.78;;;6.57;42.71
28428;BME280;15662;49.128;8.520;2023-02-11T00:53:54;102582.88;;;6.54;42.93
28428;BME280;15662;49.128;8.520;2023-02-11T00:56:22;102581.19;;;6.56;42.76
28428;BME280;15662;49.128;8.520;2023-02-11T00:58:50;102576.84;;;6.58;42.88
28428;BME280;15662;49.128;8.520;2023-02-11T01:01:19;102578.63;;;6.59;42.86
28428;BME280;15662;49.128;8.520;2023-02-11T01:03:47;102564.53;;;6.57;43.12
28428;BME280;15662;49.128;8.520;2023-02-11T01:06:15;102566.31;;;6.58;42.99
28428;BME280;15662;49.128;8.520;2023-02-11T01:08:44;102560.13;;;6.56;43.04
28428;BME280;15662;49.128;8.520;2023-02-11T01:11:16;102556.78;;;6.63;43.09
28428;BME280;15662;49.128;8.520;2023-02-11T01:13:47;102556.81;;;6.64;43.08
28428;BME280;15662;49.128;8.520;2023-02-11T01:16:16;102555.88;;;6.62;43.42
28428;BME280;15662;49.128;8.520;2023-02-11T01:18:46;102549.88;;;6.68;43.31
28428;BME280;15662;49.128;8.520;2023-02-11T01:21:17;102550.81;;;6.70;43.30
28428;BME280;15662;49.128;8.520;2023-02-11T01:23:44;102543.84;;;6.72;43.46
28428;BME280;15662;49.128;8.520;2023-02-11T01:26:12;102552.75;;;6.77;43.37
28428;BME280;15662;49.128;8.520;2023-02-11T01:28:40;102537.72;;;6.75;43.29
28428;BME280;15662;49.128;8.520;2023-02-11T01:31:08;102540.47;;;6.79;43.28
28428;BME280;15662;49.128;8.520;2023-02-11T01:33:36;102537.97;;;6.84;43.50
28428;BME280;15662;49.128;8.520;2023-02-11T01:36:07;102543.31;;;6.87;43.28
28428;BME280;15662;49.128;8.520;2023-02-11T01:38:35;102535.44;;;6.88;43.50
28428;BME280;15662;49.128;8.520;2023-02-11T01:41:07;102544.34;;;6.93;43.67
28428;BME280;15662;49.128;8.520;2023-02-11T01:43:44;102548.75;;;6.94;43.73
28428;BME280;15662;49.128;8.520;2023-02-11T01:49:16;102549.69;;;6.96;43.47
28428;BME280;15662;49.128;8.520;2023-02-11T01:52:00;102541.75;;;6.95;43.53
28428;BME280;15662;49.128;8.520;2023-02-11T01:54:40;102542.47;;;6.89;43.45
28428;BME280;15662;49.128;8.520;2023-02-11T01:57:32;102536.28;;;6.87;43.56
28428;BME280;15662;49.128;8.520;2023-02-11T02:00:20;102531.94;;;6.89;43.35
28428;BME280;15662;49.128;8.520;2023-02-11T02:03:28;102537.94;;;6.82;43.49
28428;BME280;15662;49.128;8.520;2023-02-11T02:06:09;102532.63;;;6.81;43.67
28428;BME280;15662;49.128;8.520;2023-02-11T02:09:15;102536.03;;;6.77;43.34
28428;BME280;15662;49.128;8.520;2023-02-11T02:11:45;102543.91;;;6.75;43.82
28428;BME280;15662;49.128;8.520;2023-02-11T02:14:14;102537.81;;;6.78;43.65
28428;BME280;15662;49.128;8.520;2023-02-11T02:16:42;102537.94;;;6.82;43.85
28428;BME280;15662;49.128;8.520;2023-02-11T02:19:56;102544.19;;;6.86;43.45
28428;BME280;15662;49.128;8.520;2023-02-11T02:22:59;102533.63;;;6.86;43.78
28428;BME280;15662;49.128;8.520;2023-02-11T02:38:26;102491.47;;;6.87;43.89
28428;BME280;15662;49.128;8.520;2023-02-11T02:41:11;102477.28;;;6.82;43.86
28428;BME280;15662;49.128;8.520;2023-02-11T02:43:46;102491.44;;;6.86;44.11
28428;BME280;15662;49.128;8.520;2023-02-11T02:46:26;102482.69;;;6.87;44.20
28428;BME280;15662;49.128;8.520;2023-02-11T02:48:55;102488.94;;;6.92;44.30
28428;BME280;15662;49.128;8.520;2023-02-11T02:52:01;102489.84;;;6.94;44.20
28428;BME280;15662;49.128;8.520;2023-02-11T02:58:48;102476.56;;;6.89;44.13
28428;BME280;15662;49.128;8.520;2023-02-11T03:04:56;102477.63;;;6.96;44.13
28428;BME280;15662;49.128;8.520;2023-02-11T03:07:50;102474.97;;;6.96;43.85
28428;BME280;15662;49.128;8.520;2023-02-11T03:10:31;102452.91;;;6.92;43.91
28428;BME280;15662;49.128;8.520;2023-02-11T03:13:02;102464.38;;;6.94;44.23
28428;BME280;15662;49.128;8.520;2023-02-11T03:15:40;102470.69;;;7.00;44.07
28428;BME280;15662;49.128;8.520;2023-02-11T03:18:15;102468.97;;;7.03;43.93
28428;BME280;15662;49.128;8.520;2023-02-11T03:20:48;102455.78;;;7.03;44.00
28428;BME280;15662;49.128;8.520;2023-02-11T03:29:01;102433.84;;;7.04;44.17
28428;BME280;15662;49.128;8.520;2023-02-11T03:37:12;102439.38;;;7.15;44.19
28428;BME280;15662;49.128;8.520;2023-02-11T03:39:57;102442.72;;;7.08;44.60
28428;BME280;15662;49.128;8.520;2023-02-11T03:42:34;102456.06;;;7.15;44.64
28428;BME280;15662;49.128;8.520;2023-02-11T03:45:10;102458.72;;;7.15;44.20
28428;BME280;15662;49.128;8.520;2023-02-11T03:47:45;102466.66;;;7.17;44.74
28428;BME280;15662;49.128;8.520;2023-02-11T03:50:14;102462.25;;;7.17;44.75
28428;BME280;15662;49.128;8.520;2023-02-11T03:52:43;102460.59;;;7.21;44.63
28428;BME280;15662;49.128;8.520;2023-02-11T03:55:16;102471.25;;;7.27;44.67
28428;BME280;15662;49.128;8.520;2023-02-11T03:57:46;102473.97;;;7.30;44.74
28428;BME280;15662;49.128;8.520;2023-02-11T04:00:14;102481.09;;;7.34;44.47
28428;BME280;15662;49.128;8.520;2023-02-11T04:02:43;102465.22;;;7.33;44.63
28428;BME280;15662;49.128;8.520;2023-02-11T04:05:15;102454.75;;;7.36;44.42
28428;BME280;15662;49.128;8.520;2023-02-11T04:07:43;102448.72;;;7.43;44.51
28428;BME280;15662;49.128;8.520;2023-02-11T04:10:11;102442.66;;;7.47;44.51
28428;BME280;15662;49.128;8.520;2023-02-11T04:12:39;102451.50;;;7.49;44.46
28428;BME280;15662;49.128;8.520;2023-02-11T04:15:08;102447.13;;;7.51;44.34
28428;BME280;15662;49.128;8.520;2023-02-11T04:17:36;102453.28;;;7.50;44.45
28428;BME280;15662;49.128;8.520;2023-02-11T04:20:04;102438.25;;;7.46;44.66
28428;BME280;15662;49.128;8.520;2023-02-11T04:22:32;102448.94;;;7.54;44.38
28428;BME280;15662;49.128;8.520;2023-02-11T04:25:00;102434.75;;;7.48;44.61
28428;BME280;15662;49.128;8.520;2023-02-11T04:27:28;102448.94;;;7.54;44.61
28428;BME280;15662;49.128;8.520;2023-02-11T04:29:55;102457.78;;;7.56;44.59
28428;BME280;15662;49.128;8.520;2023-02-11T04:32:23;102455.22;;;7.59;45.01
28428;BME280;15662;49.128;8.520;2023-02-11T04:34:51;102442.91;;;7.59;44.32
28428;BME280;15662;49.128;8.520;2023-02-11T04:37:21;102450.00;;;7.63;44.49
28428;BME280;15662;49.128;8.520;2023-02-11T04:39:48;102448.28;;;7.64;44.24
28428;BME280;15662;49.128;8.520;2023-02-11T04:42:16;102446.56;;;7.67;44.60
28428;BME280;15662;49.128;8.520;2023-02-11T04:44:44;102438.63;;;7.66;44.78
28428;BME280;15662;49.128;8.520;2023-02-11T04:47:12;102414.00;;;7.67;44.44
28428;BME280;15662;49.128;8.520;2023-02-11T04:49:42;102433.47;;;7.72;44.53
28428;BME280;15662;49.128;8.520;2023-02-11T04:52:10;102432.59;;;7.73;44.82
28428;BME280;15662;49.128;8.520;2023-02-11T04:54:38;102423.84;;;7.74;44.55
28428;BME280;15662;49.128;8.520;2023-02-11T04:57:07;102404.31;;;7.66;44.85
28428;BME280;15662;49.128;8.520;2023-02-11T04:59:34;102401.84;;;7.73;44.54
28428;BME280;15662;49.128;8.520;2023-02-11T05:02:02;102402.66;;;7.72;44.42
28428;BME280;15662;49.128;8.520;2023-02-11T05:04:30;102397.31;;;7.68;44.68
28428;BME280;15662;49.128;8.520;2023-02-11T05:06:58;102397.22;;;7.63;44.29
28428;BME280;15662;49.128;8.520;2023-02-11T05:09:26;102379.53;;;7.58;45.07
28428;BME280;15662;49.128;8.520;2023-02-11T05:11:54;102387.41;;;7.56;44.87
28428;BME280;15662;49.128;8.520;2023-02-11T05:14:22;102379.47;;;7.55;44.91
28428;BME280;15662;49.128;8.520;2023-02-11T05:16:50;102370.63;;;7.53;44.78
28428;BME280;15662;49.128;8.520;2023-02-11T05:19:18;102371.44;;;7.48;45.64
28428;BME280;15662;49.128;8.520;2023-02-11T05:21:46;102386.47;;;7.53;45.04
28428;BME280;15662;49.128;8.520;2023-02-11T05:24:30;102384.66;;;7.50;44.97
28428;BME280;15662;49.128;8.520;2023-02-11T05:26:59;102383.81;;;7.51;45.25
28428;BME280;15662;49.128;8.520;2023-02-11T05:29:27;102389.09;;;7.51;45.60
28428;BME280;15662;49.128;8.520;2023-02-11T05:31:55;102395.22;;;7.50;45.51
28428;BME280;15662;49.128;8.520;2023-02-11T05:34:23;102407.63;;;7.54;45.58
28428;BME280;15662;49.128;8.520;2023-02-11T05:36:50;102410.28;;;7.56;45.51
28428;BME280;15662;49.128;8.520;2023-02-11T05:39:21;102406.78;;;7.57;45.39
28428;BME280;15662;49.128;8.520;2023-02-11T05:41:49;102401.53;;;7.58;45.41
28428;BME280;15662;49.128;8.520;2023-02-11T05:44:16;102420.94;;;7.62;45.02
28428;BME280;15662;49.128;8.520;2023-02-11T05:46:44;102417.50;;;7.66;45.09
28428;BME280;15662;49.128;8.520;2023-02-11T05:49:12;102414.00;;;7.67;45.49
28428;BME280;15662;49.128;8.520;2023-02-11T05:51:40;102423.69;;;7.66;45.16
28428;BME280;15662;49.128;8.520;2023-02-11T05:54:09;102434.25;;;7.68;45.35
28428;BME280;15662;49.128;8.520;2023-02-11T05:56:37;102428.06;;;7.66;45.22
28428;BME280;15662;49.128;8.520;2023-02-11T05:59:05;102423.75;;;7.69;45.22
28428;BME280;15662;49.128;8.520;2023-02-11T06:01:33;102422.94;;;7.73;44.95
28428;BME280;15662;49.128;8.520;2023-02-11T06:04:00;102415.75;;;7.66;45.40
28428;BME280;15662;49.128;8.520;2023-02-11T06:06:31;102412.06;;;7.57;45.37
28428;BME280;15662;49.128;8.520;2023-02-11T06:08:59;102412.94;;;7.57;45.20
28428;BME280;15662;49.128;8.520;2023-02-11T06:11:27;102417.31;;;7.55;45.37
28428;BME280;15662;49.128;8.520;2023-02-11T06:13:55;102401.38;;;7.49;45.11
28428;BME280;15662;49.128;8.520;2023-02-11T06:16:22;102404.72;;;7.42;45.28
28428;BME280;15662;49.128;8.520;2023-02-11T06:18:51;102423.09;;;7.36;45.34
28428;BME280;15662;49.128;8.520;2023-02-11T06:21:19;102422.97;;;7.30;45.32
28428;BME280;15662;49.128;8.520;2023-02-11T06:23:46;102404.44;;;7.27;45.36
28428;BME280;15662;49.128;8.520;2023-02-11T06:26:18;102417.72;;;7.33;45.12
28428;BME280;15662;49.128;8.520;2023-02-11T06:28:47;102397.28;;;7.21;45.59
28428;BME280;15662;49.128;8.520;2023-02-11T06:31:15;102414.06;;;7.24;45.08
28428;BME280;15662;49.128;8.520;2023-02-11T06:33:43;102415.78;;;7.22;45.00
28428;BME280;15662;49.128;8.520;2023-02-11T06:36:18;102426.34;;;7.24;45.32
28428;BME280;15662;49.128;8.520;2023-02-11T06:38:46;102414.81;;;7.19;45.39
28428;BME280;15662;49.128;8.520;2023-02-11T06:41:17;102405.91;;;7.14;45.45
28428;BME280;15662;49.128;8.520;2023-02-11T06:43:47;102396.22;;;7.11;45.46
28428;BME280;15662;49.128;8.520;2023-02-11T06:46:15;102411.94;;;7.07;45.61
28428;BME280;15662;49.128;8.520;2023-02-11T06:48:43;102420.81;;;7.10;45.38
28428;BME280;15662;49.128;8.520;2023-02-11T06:51:13;102419.94;;;7.11;45.79
28428;BME280;15662;49.128;8.520;2023-02-11T06:53:44;102419.06;;;7.12;45.64
28428;BME280;15662;49.128;8.520;2023-02-11T06:56:20;102410.34;;;7.15;45.51
28428;BME280;15662;49.128;8.520;2023-02-11T06:58:53;102404.19;;;7.14;45.55
28428;BME280;15662;49.128;8.520;2023-02-11T07:01:24;102411.25;;;7.17;45.79
28428;BME280;15662;49.128;8.520;2023-02-11T07:03:53;102425.31;;;7.16;45.59
28428;BME280;15662;49.128;8.520;2023-02-11T07:06:24;102412.91;;;7.12;45.70
28428;BME280;15662;49.128;8.520;2023-02-11T07:08:55;102433.41;;;7.25;45.58
28428;BME280;15662;49.128;8.520;2023-02-11T07:11:27;102428.25;;;7.31;45.65
28428;BME280;15662;49.128;8.520;2023-02-11T07:14:02;102432.69;;;7.34;45.64
28428;BME280;15662;49.128;8.520;2023-02-11T07:16:31;102457.50;;;7.42;45.53
28428;BME280;15662;49.128;8.520;2023-02-11T07:19:00;102459.28;;;7.43;45.25
28428;BME280;15662;49.128;8.520;2023-02-11T07:21:28;102471.66;;;7.45;45.64
28428;BME280;15662;49.128;8.520;2023-02-11T07:23:56;102476.06;;;7.45;45.67
28428;BME280;15662;49.128;8.520;2023-02-11T07:26:24;102474.31;;;7.47;45.59
28428;BME280;15662;49.128;8.520;2023-02-11T07:28:55;102453.66;;;7.26;45.39
28428;BME280;15662;49.128;8.520;2023-02-11T07:31:27;102466.31;;;7.42;45.85
28428;BME280;15662;49.128;8.520;2023-02-11T07:33:58;102472.53;;;7.46;45.53
28428;BME280;15662;49.128;8.520;2023-02-11T07:36:29;102456.72;;;7.46;45.60
28428;BME280;15662;49.128;8.520;2023-02-11T07:38:58;102461.09;;;7.44;45.41
28428;BME280;15662;49.128;8.520;2023-02-11T07:41:27;102457.56;;;7.45;45.65
28428;BME280;15662;49.128;8.520;2023-02-11T07:43:55;102433.75;;;7.40;45.61
28428;BME280;15662;49.128;8.520;2023-02-11T07:46:26;102425.81;;;7.40;45.95
28428;BME280;15662;49.128;8.520;2023-02-11T07:48:55;102438.84;;;7.33;45.85
28428;BME280;15662;49.128;8.520;2023-02-11T07:51:27;102449.41;;;7.33;46.11
28428;BME280;15662;49.128;8.520;2023-02-11T07:53:58;102435.22;;;7.28;45.76
28428;BME280;15662;49.128;8.520;2023-02-11T07:56:28;102430.03;;;7.32;45.69
28428;BME280;15662;49.128;8.520;2023-02-11T07:58:59;102431.78;;;7.30;45.88
28428;BME280;15662;49.128;8.520;2023-02-11T08:01:29;102425.50;;;7.25;45.96
28428;BME280;15662;49.128;8.520;2023-02-11T08:03:59;102432.63;;;7.29;46.00
28428;BME280;15662;49.128;8.520;2023-02-11T08:06:31;102437.03;;;7.30;45.91
28428;BME280;15662;49.128;8.520;2023-02-11T08:09:08;102436.25;;;7.34;46.21
28428;BME280;15662;49.128;8.520;2023-02-11T08:11:37;102431.03;;;7.37;46.29
28428;BME280;15662;49.128;8.520;2023-02-11T08:14:04;102430.22;;;7.40;46.06
28428;BME280;15662;49.128;8.520;2023-02-11T08:16:35;102420.44;;;7.36;46.17
28428;BME280;15662;49.128;8.520;2023-02-11T08:19:07;102428.41;;;7.39;46.02
28428;BME280;15662;49.128;8.520;2023-02-11T08:21:37;102424.84;;;7.37;46.22
28428;BME280;15662;49.128;8.520;2023-02-11T08:24:06;102432.09;;;7.47;46.06
28428;BME280;15662;49.128;8.520;2023-02-11T08:26:35;102424.94;;;7.41;45.81
28428;BME280;15662;49.128;8.520;2023-02-11T08:29:09;102430.34;;;7.47;45.55
28428;BME280;15662;49.128;8.520;2023-02-11T08:31:40;102425.06;;;7.46;46.08
28428;BME280;15662;49.128;8.520;2023-02-11T08:34:09;102428.38;;;7.36;45.93
28428;BME280;15662;49.128;8.520;2023-02-11T08:36:39;102428.47;;;7.40;46.25
28428;BME280;15662;49.128;8.520;2023-02-11T08:39:14;102435.69;;;7.50;45.78
28428;BME280;15662;49.128;8.520;2023-02-11T08:41:49;102426.03;;;7.51;45.90
28428;BME280;15662;49.128;8.520;2023-02-11T08:44:18;102425.94;;;7.48;46.06
28428;BME280;15662;49.128;8.520;2023-02-11T08:46:47;102428.69;;;7.53;46.21
28428;BME280;15662;49.128;8.520;2023-02-11T08:49:16;102447.22;;;7.56;45.72
28428;BME280;15662;49.128;8.520;2023-02-11T08:51:44;102442.84;;;7.58;46.31
28428;BME280;15662;49.128;8.520;2023-02-11T08:54:32;102453.50;;;7.61;46.30
28428;BME280;15662;49.128;8.520;2023-02-11T08:57:00;102435.09;;;7.64;46.58
28428;BME280;15662;49.128;8.520;2023-02-11T08:59:36;102446.84;;;7.81;46.54
28428;BME280;15662;49.128;8.520;2023-02-11T09:02:11;102449.72;;;7.93;46.12
28428;BME280;15662;49.128;8.520;2023-02-11T09:04:39;102431.28;;;7.96;46.15
28428;BME280;15662;49.128;8.520;2023-02-11T09:07:07;102435.84;;;8.05;45.95
28428;BME280;15662;49.128;8.520;2023-02-11T09:09:35;102438.66;;;8.16;45.82
28428;BME280;15662;49.128;8.520;2023-02-11T09:12:04;102441.31;;;8.17;45.70
28428;BME280;15662;49.128;8.520;2023-02-11T09:14:31;102444.91;;;8.19;46.07
28428;BME280;15662;49.128;8.520;2023-02-11T09:16:59;102436.09;;;8.19;46.20
28428;BME280;15662;49.128;8.520;2023-02-11T09:19:27;102438.84;;;8.26;45.76
28428;BME280;15662;49.128;8.520;2023-02-11T09:21:55;102438.91;;;8.31;46.15
28428;BME280;15662;49.128;8.520;2023-02-11T09:24:23;102436.34;;;8.34;46.61
28428;BME280;15662;49.128;8.520;2023-02-11T09:26:51;102453.28;;;8.45;46.04
28428;BME280;15662;49.128;8.520;2023-02-11T09:29:19;102448.09;;;8.51;45.68
28428;BME280;15662;49.128;8.520;2023-02-11T09:31:47;102438.53;;;8.58;46.13
28428;BME280;15662;49.128;8.520;2023-02-11T09:34:15;102442.13;;;8.63;46.08
28428;BME280;15662;49.128;8.520;2023-02-11T09:36:43;102428.91;;;8.65;45.97
28428;BME280;15662;49.128;8.520;2023-02-11T09:39:15;102434.41;;;8.78;45.91
28428;BME280;15662;49.128;8.520;2023-02-11T09:42:25;102439.78;;;8.85;45.51
28428;BME280;15662;49.128;8.520;2023-02-11T09:44:57;102449.56;;;8.89;45.99
28428;BME280;15662;49.128;8.520;2023-02-11T09:47:45;102455.94;;;9.03;45.70
28428;BME280;15662;49.128;8.520;2023-02-11T09:53:23;102468.41;;;9.12;45.48
28428;BME280;15662;49.128;8.520;2023-02-11T09:55:55;102466.66;;;9.14;45.81
28428;BME280;15662;49.128;8.520;2023-02-11T09:58:37;102471.13;;;9.19;45.52
28428;BME280;15662;49.128;8.520;2023-02-11T10:05:12;102453.41;;;9.14;44.95
28428;BME280;15662;49.128;8.520;2023-02-11T10:08:17;102464.13;;;9.21;45.52
28428;BME280;15662;49.128;8.520;2023-02-11T10:10:57;102449.19;;;9.26;45.23
28428;BME280;15662;49.128;8.520;2023-02-11T10:16:23;102447.69;;;9.47;45.09
28428;BME280;15662;49.128;8.520;2023-02-11T10:19:33;102444.22;;;9.52;45.06
28428;BME280;15662;49.128;8.520;2023-02-11T10:22:42;102435.50;;;9.61;44.96
28428;BME280;15662;49.128;8.520;2023-02-11T10:27:53;102429.41;;;9.71;45.36
28428;BME280;15662;49.128;8.520;2023-02-11T10:33:57;102440.31;;;10.00;45.01
28428;BME280;15662;49.128;8.520;2023-02-11T10:36:32;102440.38;;;10.09;45.11
28428;BME280;15662;49.128;8.520;2023-02-11T10:39:15;102432.53;;;10.22;44.95
28428;BME280;15662;49.128;8.520;2023-02-11T10:41:52;102437.13;;;10.37;45.04
28428;BME280;15662;49.128;8.520;2023-02-11T10:44:59;102416.88;;;10.46;44.76
28428;BME280;15662;49.128;8.520;2023-02-11T10:47:34;102419.56;;;10.52;44.82
28428;BME280;15662;49.128;8.520;2023-02-11T10:50:37;102420.53;;;10.67;44.72
28428;BME280;15662;49.128;8.520;2023-02-11T10:53:25;102407.31;;;10.71;44.89
28428;BME280;15662;49.128;8.520;2023-02-11T10:55:55;102403.84;;;10.83;44.87
28428;BME280;15662;49.128;8.520;2023-02-11T10:58:45;102403.03;;;10.96;44.46
28428;BME280;15662;49.128;8.520;2023-02-11T11:01:21;102398.63;;;11.01;44.60
28428;BME280;15662;49.128;8.520;2023-02-11T11:03:52;102409.28;;;11.07;44.57
28428;BME280;15662;49.128;8.520;2023-02-11T11:06:31;102406.66;;;11.15;44.23
28428;BME280;15662;49.128;8.520;2023-02-11T11:09:00;102413.75;;;11.15;44.53
28428;BME280;15662;49.128;8.520;2023-02-11T11:11:28;102406.66;;;11.17;44.35
28428;BME280;15662;49.128;8.520;2023-02-11T11:14:00;102410.25;;;11.26;44.33
28428;BME280;15662;49.128;8.520;2023-02-11T11:16:34;102422.66;;;11.30;44.45
28428;BME280;15662;49.128;8.520;2023-02-11T11:21:47;102410.31;;;11.39;44.02
28428;BME280;15662;49.128;8.520;2023-02-11T11:24:37;102403.19;;;11.37;43.64
28428;BME280;15662;49.128;8.520;2023-02-11T11:27:18;102406.75;;;11.40;43.93
28428;BME280;15662;49.128;8.520;2023-02-11T11:29:54;102391.69;;;11.35;43.83
28428;BME280;15662;49.128;8.520;2023-02-11T11:32:31;102413.84;;;11.45;44.02
28428;BME280;15662;49.128;8.520;2023-02-11T11:35:04;102402.38;;;11.51;43.95
28428;BME280;15662;49.128;8.520;2023-02-11T11:37:36;102418.28;;;11.51;43.93
28428;BME280;15662;49.128;8.520;2023-02-11T11:40:30;102402.38;;;11.55;43.62
28428;BME280;15662;49.128;8.520;2023-02-11T11:45:58;102401.50;;;11.67;43.57
28428;BME280;15662;49.128;8.520;2023-02-11T11:48:35;102402.41;;;11.69;43.36
28428;BME280;15662;49.128;8.520;2023-02-11T11:51:09;102399.75;;;11.66;43.89
28428;BME280;15662;49.128;8.520;2023-02-11T11:53:53;102413.06;;;11.80;43.67
28428;BME280;15662;49.128;8.520;2023-02-11T11:56:32;102406.91;;;11.82;43.70
28428;BME280;15662;49.128;8.520;2023-02-11T11:59:11;102405.13;;;11.89;43.59
28428;BME280;15662;49.128;8.520;2023-02-11T12:05:10;102406.03;;;12.00;43.30
28428;BME280;15662;49.128;8.520;2023-02-11T12:08:02;102402.50;;;12.03;43.53
28428;BME280;15662;49.128;8.520;2023-02-11T12:16:28;102385.66;;;12.11;43.33
28428;BME280;15662;49.128;8.520;2023-02-11T12:24:51;102394.53;;;12.23;43.61
28428;BME280;15662;49.128;8.520;2023-02-11T12:37:15;102385.66;;;12.28;43.36
28428;BME280;15662;49.128;8.520;2023-02-11T12:39:50;102366.16;;;12.25;43.22
28428;BME280;15662;49.128;8.520;2023-02-11T12:42:33;102376.81;;;12.32;43.47
28428;BME280;15662;49.128;8.520;2023-02-11T12:49:24;102359.03;;;12.44;43.46
28428;BME280;15662;49.128;8.520;2023-02-11T12:57:26;102358.16;;;12.38;43.68
28428;BME280;15662;49.128;8.520;2023-02-11T13:00:23;102367.00;;;12.59;43.59
28428;BME280;15662;49.128;8.520;2023-02-11T13:03:14;102352.81;;;12.58;43.29
28428;BME280;15662;49.128;8.520;2023-02-11T13:05:56;102357.22;;;12.72;43.39
28428;BME280;15662;49.128;8.520;2023-02-11T13:08:48;102357.19;;;12.75;43.35
28428;BME280;15662;49.128;8.520;2023-02-11T13:14:08;102351.84;;;12.84;43.18
28428;BME280;15662;49.128;8.520;2023-02-11T13:16:46;102350.03;;;12.89;43.34
28428;BME280;15662;49.128;8.520;2023-02-11T13:19:40;102355.34;;;12.97;43.29
28428;BME280;15662;49.128;8.520;2023-02-11T13:22:46;102344.69;;;13.01;43.21
28428;BME280;15662;49.128;8.520;2023-02-11T13:28:53;102344.63;;;13.12;42.86
28428;BME280;15662;49.128;8.520;2023-02-11T13:31:23;102349.91;;;13.15;43.20
28428;BME280;15662;49.128;8.520;2023-02-11T13:33:54;102341.94;;;13.16;43.26
28428;BME280;15662;49.128;8.520;2023-02-11T13:36:28;102352.56;;;13.29;42.97
28428;BME280;15662;49.128;8.520;2023-02-11T13:39:03;102346.34;;;13.31;43.02
28428;BME280;15662;49.128;8.520;2023-02-11T13:41:37;102333.91;;;13.35;43.08
28428;BME280;15662;49.128;8.520;2023-02-11T13:46:58;102340.88;;;13.51;43.06
28428;BME280;15662;49.128;8.520;2023-02-11T13:49:49;102357.69;;;13.59;42.94
28428;BME280;15662;49.128;8.520;2023-02-11T13:57:40;102342.47;;;13.77;42.91
28428;BME280;15662;49.128;8.520;2023-02-11T14:03:35;102342.41;;;13.87;42.65
28428;BME280;15662;49.128;8.520;2023-02-11T14:06:27;102334.34;;;13.92;42.81
28428;BME280;15662;49.128;8.520;2023-02-11T14:14:26;102344.94;;;14.03;42.37
28428;BME280;15662;49.128;8.520;2023-02-11T14:19:43;102324.44;;;14.09;42.28
28428;BME280;15662;49.128;8.520;2023-02-11T14:22:42;102336.84;;;14.12;42.27
28428;BME280;15662;49.128;8.520;2023-02-11T14:25:25;102327.97;;;14.11;42.26
28428;BME280;15662;49.128;8.520;2023-02-11T14:30:51;102327.16;;;14.05;42.03
28428;BME280;15662;49.128;8.520;2023-02-11T14:36:49;102313.91;;;13.96;42.14
28428;BME280;15662;49.128;8.520;2023-02-11T14:42:24;102325.50;;;13.90;42.19
28428;BME280;15662;49.128;8.520;2023-02-11T14:45:09;102340.50;;;13.99;42.27
28428;BME280;15662;49.128;8.520;2023-02-11T14:48:07;102337.88;;;13.97;42.01
28428;BME280;15662;49.128;8.520;2023-02-11T14:50:47;102333.38;;;14.02;42.09
28428;BME280;15662;49.128;8.520;2023-02-11T14:53:36;102338.69;;;14.04;42.39
28428;BME280;15662;49.128;8.520;2023-02-11T14:56:23;102343.06;;;14.12;42.11
28428;BME280;15662;49.128;8.520;2023-02-11T14:59:00;102340.44;;;14.09;42.16
28428;BME280;15662;49.128;8.520;2023-02-11T15:04:04;102346.63;;;14.13;42.00
28428;BME280;15662;49.128;8.520;2023-02-11T15:06:46;102349.28;;;14.14;41.96
28428;BME280;15662;49.128;8.520;2023-02-11T15:09:24;102353.75;;;14.14;41.99
28428;BME280;15662;49.128;8.520;2023-02-11T15:11:56;102351.09;;;14.11;41.96
28428;BME280;15662;49.128;8.520;2023-02-11T15:14:32;102365.31;;;14.10;41.96
28428;BME280;15662;49.128;8.520;2023-02-11T15:17:05;102353.81;;;14.03;42.04
28428;BME280;15662;49.128;8.520;2023-02-11T15:19:38;102350.28;;;14.04;42.02
28428;BME280;15662;49.128;8.520;2023-02-11T15:22:18;102350.22;;;14.10;41.98
28428;BME280;15662;49.128;8.520;2023-02-11T15:25:11;102353.81;;;14.03;41.90
28428;BME280;15662;49.128;8.520;2023-02-11T15:27:46;102360.88;;;14.07;42.06
28428;BME280;15662;49.128;8.520;2023-02-11T15:32:55;102365.31;;;14.08;42.06
28428;BME280;15662;49.128;8.520;2023-02-11T15:37:58;102370.66;;;14.08;42.22
28428;BME280;15662;49.128;8.520;2023-02-11T15:40:30;102376.88;;;14.10;42.13
28428;BME280;15662;49.128;8.520;2023-02-11T15:43:08;102368.91;;;14.09;42.08
28428;BME280;15662;49.128;8.520;2023-02-11T15:45:59;102378.63;;;14.14;42.08
28428;BME280;15662;49.128;8.520;2023-02-11T15:48:40;102366.19;;;14.12;42.08